Time;durP1;ratioP1;P1;durP2;ratioP2;P2;SDS_P1;SDS_P2;PMS_P1;PMS_P2;Temp;Humidity;BMP_temperature;BMP_pressure;BME280_temperature;BME280_humidity;BME280_pressure;Samples;Min_cycle;Max_cycle;Signal;HPM_P1;HPM_P2
2021/03/11 00:00:40;;;;;;;46.78;17.33;;;-0.20;50.20;;;;;;5056440;28;20033;-86
2021/03/11 00:03:07;;;;;;;36.38;14.77;;;-0.20;50.20;;;;;;5057733;28;20402;-86
2021/03/11 00:05:34;;;;;;;31.88;13.10;;;-0.20;50.50;;;;;;5058176;28;20025;-86
2021/03/11 00:07:59;;;;;;;22.50;12.15;;;-0.20;50.30;;;;;;5058648;28;20106;-86
2021/03/11 00:10:25;;;;;;;25.60;12.43;;;-0.20;50.20;;;;;;5057908;28;20032;-86
2021/03/11 00:12:51;;;;;;;22.27;11.40;;;-0.20;50.30;;;;;;5057761;28;20021;-87
2021/03/11 00:15:19;;;;;;;21.80;11.55;;;-0.20;50.30;;;;;;5057358;28;20025;-86
2021/03/11 00:17:46;;;;;;;18.45;9.80;;;-0.20;50.30;;;;;;5057477;28;20178;-87
2021/03/11 00:20:14;;;;;;;17.77;10.10;;;-0.20;50.30;;;;;;5058560;28;20025;-86
2021/03/11 00:22:40;;;;;;;21.05;10.40;;;-0.20;50.40;;;;;;5058881;28;20075;-86
2021/03/11 00:25:08;;;;;;;20.02;10.20;;;-0.20;50.40;;;;;;5057896;28;20424;-86
2021/03/11 00:27:34;;;;;;;18.65;10.23;;;-0.20;50.40;;;;;;5057539;28;20024;-86
2021/03/11 00:29:59;;;;;;;15.63;8.30;;;-0.20;50.40;;;;;;5056839;28;20056;-86
2021/03/11 00:32:25;;;;;;;21.65;10.27;;;-0.20;50.40;;;;;;5055643;28;20020;-86
2021/03/11 00:34:51;;;;;;;18.02;9.48;;;-0.20;50.40;;;;;;5056724;28;20021;-86
2021/03/11 00:37:17;;;;;;;19.15;9.85;;;-0.20;50.40;;;;;;5073733;28;20060;-86
2021/03/11 00:39:42;;;;;;;19.35;9.52;;;-0.30;50.40;;;;;;5059977;28;20047;-86
2021/03/11 00:42:08;;;;;;;18.92;10.50;;;-0.30;50.50;;;;;;5061924;28;20025;-85
2021/03/11 00:44:34;;;;;;;18.50;9.10;;;-0.30;50.60;;;;;;5075972;28;20455;-85
2021/03/11 00:47:00;;;;;;;20.40;9.77;;;-0.30;50.60;;;;;;5055840;28;20029;-86
2021/03/11 00:49:26;;;;;;;23.13;10.82;;;-0.30;50.60;;;;;;5057911;28;20029;-86
2021/03/11 00:51:51;;;;;;;17.90;9.82;;;-0.30;50.70;;;;;;5073371;28;20455;-85
2021/03/11 00:54:17;;;;;;;21.83;10.38;;;-0.30;50.70;;;;;;5057972;28;20017;-86
2021/03/11 00:56:43;;;;;;;19.80;10.15;;;-0.30;50.80;;;;;;5057303;28;20017;-86
2021/03/11 00:59:08;;;;;;;19.80;10.35;;;-0.40;50.80;;;;;;5057495;28;20033;-86
2021/03/11 01:01:34;;;;;;;19.63;10.48;;;-0.40;50.80;;;;;;5057278;28;20374;-86
2021/03/11 01:04:00;;;;;;;21.00;10.13;;;-0.40;50.80;;;;;;5057357;28;20078;-86
2021/03/11 01:06:26;;;;;;;16.02;9.00;;;-0.50;50.80;;;;;;5057258;28;20469;-86
2021/03/11 01:08:52;;;;;;;18.85;9.32;;;-0.50;50.90;;;;;;5057852;28;20107;-86
2021/03/11 01:11:17;;;;;;;19.08;10.10;;;-0.50;51.00;;;;;;5057211;28;20032;-86
2021/03/11 01:13:43;;;;;;;18.77;9.80;;;-0.50;51.00;;;;;;5057372;28;20450;-86
2021/03/11 01:16:09;;;;;;;19.92;10.02;;;-0.60;51.00;;;;;;5055668;28;20082;-86
2021/03/11 01:18:35;;;;;;;17.45;9.50;;;-0.60;51.10;;;;;;5057379;28;20074;-86
2021/03/11 01:21:01;;;;;;;22.65;10.27;;;-0.50;51.10;;;;;;5058861;28;20017;-86
2021/03/11 01:23:27;;;;;;;20.58;10.23;;;-0.50;51.10;;;;;;5060283;28;20107;-86
2021/03/11 01:25:52;;;;;;;21.95;10.25;;;-0.50;51.20;;;;;;5058703;28;20040;-86
2021/03/11 01:28:18;;;;;;;20.67;9.57;;;-0.50;51.10;;;;;;5064765;28;20037;-86
2021/03/11 01:30:44;;;;;;;22.20;11.25;;;-0.50;51.10;;;;;;5065610;28;20025;-86
2021/03/11 01:33:10;;;;;;;23.02;10.73;;;-0.50;51.10;;;;;;5067641;28;20085;-86
2021/03/11 01:35:36;;;;;;;20.98;11.20;;;-0.60;51.10;;;;;;5067163;28;20047;-86
2021/03/11 01:38:02;;;;;;;18.35;9.45;;;-0.60;51.10;;;;;;5063495;28;20032;-87
2021/03/11 01:40:27;;;;;;;21.33;10.05;;;-0.50;51.10;;;;;;5063325;28;20020;-86
2021/03/11 01:42:53;;;;;;;20.33;10.35;;;-0.50;51.10;;;;;;5066089;28;20025;-85
2021/03/11 01:45:20;;;;;;;19.52;9.57;;;-0.50;51.10;;;;;;5064521;28;20454;-85
2021/03/11 01:47:45;;;;;;;18.98;9.95;;;-0.60;51.00;;;;;;5059983;28;20025;-86
2021/03/11 01:50:12;;;;;;;17.88;9.18;;;-0.60;51.00;;;;;;5064383;28;20058;-86
2021/03/11 01:52:39;;;;;;;20.10;10.65;;;-0.60;51.00;;;;;;5066718;28;20022;-87
2021/03/11 01:55:06;;;;;;;19.58;9.95;;;-0.60;51.10;;;;;;5066045;28;20083;-87
2021/03/11 01:57:33;;;;;;;19.08;9.98;;;-0.60;51.10;;;;;;5068648;28;20033;-85
2021/03/11 02:00:01;;;;;;;16.05;9.27;;;-0.60;51.20;;;;;;5067423;28;20031;-84
2021/03/11 02:02:27;;;;;;;17.80;10.05;;;-0.60;51.30;;;;;;5068113;28;20037;-85
2021/03/11 02:04:52;;;;;;;17.27;9.60;;;-0.60;51.30;;;;;;5061142;28;20024;-86
2021/03/11 02:07:18;;;;;;;22.42;10.32;;;-0.60;51.30;;;;;;5060649;28;20029;-86
2021/03/11 02:09:44;;;;;;;15.45;9.23;;;-0.60;51.40;;;;;;5060664;28;20053;-84
2021/03/11 02:12:28;;;;;;;17.27;9.30;;;-0.60;51.40;;;;;;5059424;28;20025;-85
2021/03/11 02:15:06;;;;;;;20.53;9.37;;;-0.60;51.60;;;;;;5060178;28;20033;-86
2021/03/11 02:17:48;;;;;;;17.20;9.00;;;-0.60;51.50;;;;;;5060314;28;20631;-85
2021/03/11 02:20:31;;;;;;;19.60;9.48;;;-0.60;51.50;;;;;;5055386;28;20108;-86
2021/03/11 02:23:17;;;;;;;18.58;9.20;;;-0.60;51.50;;;;;;5055864;28;20029;-85
2021/03/11 02:25:52;;;;;;;19.33;9.48;;;-0.60;51.60;;;;;;5055894;28;20023;-86
2021/03/11 02:28:35;;;;;;;18.90;9.23;;;-0.60;51.50;;;;;;5055554;28;20078;-85
2021/03/11 02:31:01;;;;;;;18.63;9.57;;;-0.60;51.70;;;;;;5055654;28;20023;-85
2021/03/11 02:33:30;;;;;;;19.27;9.48;;;-0.60;51.60;;;;;;5054762;28;20021;-85
2021/03/11 02:35:58;;;;;;;18.77;9.57;;;-0.60;51.70;;;;;;5056135;28;20029;-86
2021/03/11 02:38:25;;;;;;;20.52;9.95;;;-0.70;51.70;;;;;;5055106;28;20040;-86
2021/03/11 02:40:55;;;;;;;23.38;10.50;;;-0.70;51.80;;;;;;5055638;28;20024;-86
2021/03/11 02:43:21;;;;;;;17.42;9.10;;;-0.70;51.90;;;;;;5070440;28;20017;-86
2021/03/11 02:45:47;;;;;;;22.80;8.80;;;-0.70;51.90;;;;;;5055494;28;20017;-85
2021/03/11 02:48:14;;;;;;;19.15;9.02;;;-0.70;52.00;;;;;;5055151;28;20036;-86
2021/03/11 02:50:41;;;;;;;18.05;8.43;;;-0.60;52.10;;;;;;5054900;28;20021;-86
2021/03/11 02:53:11;;;;;;;19.30;9.05;;;-0.60;52.10;;;;;;5055547;28;20512;-86
2021/03/11 02:55:41;;;;;;;18.48;8.85;;;-0.60;52.20;;;;;;5056215;28;20017;-86
2021/03/11 02:58:12;;;;;;;19.05;9.32;;;-0.60;52.20;;;;;;5060377;28;20021;-85
2021/03/11 03:00:40;;;;;;;17.52;8.88;;;-0.60;52.20;;;;;;5059225;28;20024;-86
2021/03/11 03:03:09;;;;;;;18.60;9.73;;;-0.60;52.20;;;;;;5059194;28;20083;-86
2021/03/11 03:05:36;;;;;;;21.10;9.07;;;-0.70;52.30;;;;;;5059826;28;20060;-86
2021/03/11 03:08:04;;;;;;;17.33;8.75;;;-0.70;52.30;;;;;;5059508;28;20028;-87
2021/03/11 03:10:32;;;;;;;19.20;9.48;;;-0.60;52.40;;;;;;5057893;28;20486;-87
2021/03/11 03:13:02;;;;;;;17.40;9.25;;;-0.60;52.50;;;;;;5046946;28;20048;-87
2021/03/11 03:15:29;;;;;;;19.20;9.15;;;-0.60;52.50;;;;;;5050913;28;20049;-87
2021/03/11 03:17:56;;;;;;;19.25;9.30;;;-0.60;52.50;;;;;;5049062;28;20047;-86
2021/03/11 03:20:23;;;;;;;18.95;9.80;;;-0.60;52.50;;;;;;5047275;28;20022;-87
2021/03/11 03:22:50;;;;;;;21.90;10.32;;;-0.60;52.60;;;;;;5054627;28;20032;-87
2021/03/11 03:25:16;;;;;;;18.17;9.95;;;-0.60;52.50;;;;;;5049245;28;20440;-87
2021/03/11 03:27:42;;;;;;;18.52;10.77;;;-0.60;52.60;;;;;;5046423;28;20017;-87
2021/03/11 03:30:11;;;;;;;21.40;10.85;;;-0.50;52.60;;;;;;5048033;28;20029;-87
2021/03/11 03:32:37;;;;;;;17.80;10.20;;;-0.60;52.60;;;;;;5045591;28;20017;-87
2021/03/11 03:35:05;;;;;;;30.90;11.15;;;-0.60;52.60;;;;;;5048149;28;20047;-87
2021/03/11 03:37:31;;;;;;;22.27;11.35;;;-0.50;52.70;;;;;;5064423;28;20044;-87
2021/03/11 03:39:57;;;;;;;22.35;11.68;;;-0.50;52.70;;;;;;5046039;28;20013;-87
2021/03/11 03:42:25;;;;;;;23.88;12.65;;;-0.50;52.60;;;;;;5050501;28;20021;-87
2021/03/11 03:44:52;;;;;;;26.42;13.63;;;-0.50;52.70;;;;;;5062069;28;20024;-87
2021/03/11 03:47:18;;;;;;;20.48;11.80;;;-0.60;52.70;;;;;;5055278;28;20021;-86
2021/03/11 03:49:44;;;;;;;25.58;13.13;;;-0.50;52.70;;;;;;5051359;28;20026;-87
2021/03/11 03:52:11;;;;;;;21.52;12.30;;;-0.50;52.70;;;;;;5046326;28;20037;-87
2021/03/11 03:54:41;;;;;;;18.75;10.52;;;-0.50;52.80;;;;;;5048077;28;20027;-85
2021/03/11 03:57:17;;;;;;;20.58;10.68;;;-0.50;52.80;;;;;;5047042;28;20367;-87
2021/03/11 03:59:45;;;;;;;20.85;10.75;;;-0.50;52.80;;;;;;5050136;28;20025;-86
2021/03/11 04:02:13;;;;;;;16.75;10.15;;;-0.50;52.80;;;;;;5050552;28;20021;-86
2021/03/11 04:04:42;;;;;;;18.35;10.48;;;-0.50;52.90;;;;;;5048049;28;20039;-86
2021/03/11 04:07:10;;;;;;;18.02;9.88;;;-0.60;52.90;;;;;;5050019;28;20017;-86
2021/03/11 04:09:38;;;;;;;33.17;10.77;;;-0.50;53.00;;;;;;5052109;28;20113;-87
2021/03/11 04:12:05;;;;;;;23.85;10.98;;;-0.50;53.00;;;;;;5053159;28;20028;-87
2021/03/11 04:14:31;;;;;;;25.52;11.77;;;-0.50;53.00;;;;;;5058126;28;20017;-86
2021/03/11 04:16:58;;;;;;;26.83;11.40;;;-0.50;53.10;;;;;;5059647;28;20038;-86
2021/03/11 04:19:25;;;;;;;21.88;11.38;;;-0.50;53.10;;;;;;5050162;28;20013;-86
2021/03/11 04:21:52;;;;;;;19.00;10.98;;;-0.40;53.10;;;;;;5043644;28;20052;-87
2021/03/11 04:24:18;;;;;;;23.17;10.70;;;-0.40;53.10;;;;;;5044631;28;20075;-86
2021/03/11 04:26:44;;;;;;;21.65;10.82;;;-0.40;53.10;;;;;;5046818;28;20074;-86
2021/03/11 04:29:11;;;;;;;23.95;11.30;;;-0.30;53.10;;;;;;5041801;28;20017;-87
2021/03/11 04:31:38;;;;;;;25.33;11.38;;;-0.20;53.10;;;;;;5047080;28;20033;-86
2021/03/11 04:34:04;;;;;;;24.17;11.88;;;-0.20;53.20;;;;;;5044183;28;20022;-88
2021/03/11 04:36:31;;;;;;;21.25;10.73;;;-0.20;53.10;;;;;;5044232;28;20096;-87
2021/03/11 04:38:57;;;;;;;20.48;10.63;;;-0.10;53.10;;;;;;5046215;28;20108;-89
2021/03/11 04:41:24;;;;;;;22.42;11.90;;;0.00;53.10;;;;;;5045805;28;20028;-85
2021/03/11 04:43:50;;;;;;;19.20;10.48;;;0.10;53.20;;;;;;5045216;28;20093;-87
2021/03/11 04:46:19;;;;;;;18.23;10.07;;;0.20;53.10;;;;;;5043627;28;20017;-87
2021/03/11 04:48:46;;;;;;;21.98;10.00;;;0.30;53.70;;;;;;5047884;28;20025;-88
2021/03/11 04:51:13;;;;;;;20.83;10.13;;;0.30;53.00;;;;;;5046989;28;20410;-86
2021/03/11 04:53:40;;;;;;;19.95;10.10;;;0.40;53.00;;;;;;5036595;28;20027;-88
2021/03/11 04:56:10;;;;;;;23.33;10.52;;;0.50;53.00;;;;;;5046607;28;20027;-88
2021/03/11 04:58:37;;;;;;;32.85;14.40;;;0.60;52.90;;;;;;5054777;28;20434;-86
2021/03/11 05:01:12;;;;;;;23.33;11.77;;;0.70;52.80;;;;;;5052377;28;20013;-87
2021/03/11 05:03:42;;;;;;;21.85;10.52;;;0.70;52.80;;;;;;5053782;28;20032;-89
2021/03/11 05:06:08;;;;;;;31.60;12.43;;;0.90;52.70;;;;;;5045447;28;20021;-87
2021/03/11 05:08:33;;;;;;;26.60;13.48;;;1.00;52.50;;;;;;5045108;28;20022;-87
2021/03/11 05:10:59;;;;;;;21.35;9.38;;;1.10;52.40;;;;;;5043254;28;20022;-87
2021/03/11 05:13:30;;;;;;;19.95;9.77;;;1.10;52.20;;;;;;5053883;28;20025;-84
2021/03/11 05:15:58;;;;;;;19.27;10.35;;;1.20;52.10;;;;;;5056740;28;20107;-86
2021/03/11 05:18:24;;;;;;;22.30;9.65;;;1.20;51.80;;;;;;5054540;28;20436;-87
2021/03/11 05:20:50;;;;;;;18.15;10.38;;;1.20;51.70;;;;;;5052815;28;20051;-87
2021/03/11 05:23:18;;;;;;;20.73;10.10;;;1.30;51.70;;;;;;5043985;28;20024;-87
2021/03/11 05:25:44;;;;;;;23.92;10.63;;;1.30;51.60;;;;;;5054601;28;20025;-88
2021/03/11 05:28:10;;;;;;;20.10;10.25;;;1.30;51.50;;;;;;5055391;28;20036;-87
2021/03/11 05:30:35;;;;;;;22.75;9.73;;;1.40;52.10;;;;;;5050170;28;20024;-88
2021/03/11 05:33:01;;;;;;;17.02;8.65;;;1.40;51.40;;;;;;5041521;28;20025;-87
2021/03/11 05:35:27;;;;;;;23.58;10.55;;;1.40;51.30;;;;;;5045446;28;20470;-88
2021/03/11 05:37:52;;;;;;;19.50;9.80;;;1.50;51.30;;;;;;5045839;28;20135;-88
2021/03/11 05:40:21;;;;;;;20.20;9.07;;;1.50;51.20;;;;;;5044266;28;20025;-87
2021/03/11 05:42:48;;;;;;;23.60;10.70;;;1.60;51.20;;;;;;5034662;28;20029;-87
2021/03/11 05:45:13;;;;;;;33.47;12.02;;;1.70;51.10;;;;;;5034745;28;20096;-86
2021/03/11 05:47:43;;;;;;;24.20;11.55;;;1.70;51.00;;;;;;5032406;28;20232;-88
2021/03/11 05:50:10;;;;;;;25.25;11.73;;;1.70;50.90;;;;;;5034612;28;20025;-88
2021/03/11 05:52:36;;;;;;;21.60;11.98;;;1.70;50.80;;;;;;5037134;28;20036;-88
2021/03/11 05:55:04;;;;;;;28.50;11.70;;;1.80;50.90;;;;;;5035393;28;20092;-88
2021/03/11 05:57:30;;;;;;;28.98;10.68;;;1.70;50.80;;;;;;5034106;28;20406;-88
2021/03/11 05:59:55;;;;;;;21.35;10.45;;;1.80;50.90;;;;;;5034377;28;20029;-89
2021/03/11 06:02:25;;;;;;;23.92;10.52;;;1.80;51.40;;;;;;5034272;28;20018;-89
2021/03/11 06:04:54;;;;;;;21.02;10.48;;;1.90;50.80;;;;;;5033804;28;20025;-88
2021/03/11 06:07:23;;;;;;;32.15;13.00;;;2.00;50.60;;;;;;5033555;28;20472;-88
2021/03/11 06:10:03;;;;;;;27.50;12.50;;;2.00;50.40;;;;;;5033490;28;20375;-88
2021/03/11 06:12:30;;;;;;;26.95;13.77;;;2.10;50.50;;;;;;5039538;28;20029;-88
2021/03/11 06:15:18;;;;;;;26.70;12.13;;;2.10;50.50;;;;;;5042597;28;20075;-88
2021/03/11 06:17:45;;;;;;;23.33;11.85;;;2.10;50.50;;;;;;5034992;28;20392;-89
2021/03/11 06:20:11;;;;;;;28.65;10.68;;;2.10;50.40;;;;;;5053871;28;20029;-88
2021/03/11 06:22:38;;;;;;;24.27;9.88;;;2.20;50.30;;;;;;5054750;28;20359;-87
2021/03/11 06:25:05;;;;;;;30.15;12.13;;;2.30;50.20;;;;;;5055462;28;20028;-87
2021/03/11 06:27:31;;;;;;;36.08;13.60;;;2.30;50.00;;;;;;5053801;28;20374;-88
2021/03/11 06:29:57;;;;;;;25.45;10.38;;;2.40;49.80;;;;;;5053798;28;20131;-87
2021/03/11 06:32:24;;;;;;;22.27;10.35;;;2.40;49.70;;;;;;5057892;28;20029;-87
2021/03/11 06:34:51;;;;;;;36.45;10.38;;;2.50;49.50;;;;;;5047846;28;20426;-87
2021/03/11 06:37:35;;;;;;;26.05;10.07;;;2.60;49.40;;;;;;5047426;28;20024;-88
2021/03/11 06:40:16;;;;;;;43.47;14.63;;;2.70;49.10;;;;;;5039164;28;20457;-87
2021/03/11 06:42:42;;;;;;;35.88;14.55;;;2.80;49.10;;;;;;5049574;28;20025;-86
2021/03/11 06:45:29;;;;;;;44.83;16.60;;;2.90;49.00;;;;;;5049576;28;20017;-87
2021/03/11 06:48:19;;;;;;;37.80;15.27;;;2.90;49.10;;;;;;5047672;28;20025;-88
2021/03/11 06:50:46;;;;;;;21.42;12.23;;;3.00;48.90;;;;;;5047505;28;20414;-88
2021/03/11 06:53:11;;;;;;;24.13;10.65;;;3.00;48.80;;;;;;5047038;28;20025;-88
2021/03/11 06:55:37;;;;;;;32.55;14.65;;;3.10;48.60;;;;;;5053106;28;20020;-87
2021/03/11 06:58:26;;;;;;;22.38;11.52;;;3.20;48.40;;;;;;5056505;28;20055;-90
2021/03/11 07:01:04;;;;;;;23.60;11.15;;;3.20;48.30;;;;;;5061701;28;20455;-87
2021/03/11 07:03:43;;;;;;;25.30;11.95;;;3.20;48.20;;;;;;5043150;28;20028;-88
2021/03/11 07:06:19;;;;;;;24.60;10.13;;;3.20;48.30;;;;;;5037533;28;20467;-86
2021/03/11 07:08:52;;;;;;;25.35;9.50;;;3.20;48.30;;;;;;5037646;28;20366;-87
2021/03/11 07:11:18;;;;;;;29.02;11.48;;;3.20;48.10;;;;;;5037377;28;20425;-88
2021/03/11 07:13:44;;;;;;;37.72;17.23;;;3.30;48.20;;;;;;5037596;28;20100;-87
2021/03/11 07:16:22;;;;;;;20.38;11.73;;;3.30;48.00;;;;;;5037744;28;20022;-88
2021/03/11 07:19:09;;;;;;;21.05;9.65;;;3.40;47.80;;;;;;5038185;28;20048;-88
2021/03/11 07:21:42;;;;;;;30.65;12.38;;;3.50;47.60;;;;;;5037235;28;20025;-88
2021/03/11 07:24:09;;;;;;;32.83;12.45;;;3.60;47.50;;;;;;5036592;28;20459;-88
2021/03/11 07:26:36;;;;;;;35.42;10.82;;;3.70;47.50;;;;;;5037210;28;20100;-87
2021/03/11 07:29:34;;;;;;;27.63;10.77;;;3.80;47.30;;;;;;5036305;28;20037;-92
2021/03/11 07:32:04;;;;;;;23.02;10.10;;;4.00;47.00;;;;;;5035669;28;20122;-91
2021/03/11 07:34:34;;;;;;;18.35;10.25;;;4.10;46.80;;;;;;5041117;28;20029;-89
2021/03/11 07:37:00;;;;;;;31.17;11.55;;;4.20;46.60;;;;;;5042816;28;20045;-91
2021/03/11 07:39:40;;;;;;;32.80;9.80;;;4.30;46.50;;;;;;5041485;28;20017;-89
2021/03/11 07:42:07;;;;;;;22.58;9.07;;;4.50;46.40;;;;;;5041553;28;20021;-90
2021/03/11 07:44:33;;;;;;;22.77;10.35;;;4.60;46.10;;;;;;5047250;28;20033;-91
2021/03/11 07:47:00;;;;;;;35.70;9.90;;;4.80;45.70;;;;;;5039298;28;20362;-91
2021/03/11 07:49:29;;;;;;;18.33;8.70;;;5.00;45.30;;;;;;5038362;28;20024;-90
2021/03/11 07:51:59;;;;;;;18.73;10.23;;;5.10;44.80;;;;;;5045344;28;20060;-89
2021/03/11 07:54:25;;;;;;;22.23;9.30;;;5.30;44.60;;;;;;5042507;28;20032;-88
2021/03/11 07:56:52;;;;;;;19.85;11.02;;;5.40;44.30;;;;;;5047870;28;20037;-87
2021/03/11 07:59:18;;;;;;;24.10;10.48;;;5.60;44.00;;;;;;5053679;28;20542;-87
2021/03/11 08:01:58;;;;;;;25.13;11.20;;;5.80;43.80;;;;;;5053131;28;20025;-88
2021/03/11 08:04:27;;;;;;;29.27;9.52;;;6.00;43.50;;;;;;5043650;28;20048;-88
2021/03/11 08:07:17;;;;;;;25.98;8.95;;;6.20;42.90;;;;;;5045230;28;20024;-89
2021/03/11 08:09:43;;;;;;;18.85;9.55;;;6.30;42.50;;;;;;5046399;28;20155;-89
2021/03/11 08:12:29;;;;;;;20.77;10.88;;;6.50;42.50;;;;;;5048454;28;20025;-88
2021/03/11 08:14:56;;;;;;;44.92;12.57;;;6.80;42.00;;;;;;5045733;28;20072;-90
2021/03/11 08:17:34;;;;;;;32.83;10.50;;;7.10;42.00;;;;;;5046909;28;20320;-87
2021/03/11 08:20:01;;;;;;;24.80;10.05;;;7.40;41.70;;;;;;5043410;28;20152;-87
2021/03/11 08:23:03;;;;;;;30.15;9.73;;;7.90;41.40;;;;;;5044598;28;20017;-88
2021/03/11 08:25:36;;;;;;;20.45;8.70;;;8.40;40.20;;;;;;5010127;28;20023;-87
2021/03/11 08:28:08;;;;;;;19.48;6.00;;;8.90;39.90;;;;;;5044172;28;20037;-88
2021/03/11 08:30:54;;;;;;;18.40;7.65;;;9.60;39.10;;;;;;5051433;28;20036;-87
2021/03/11 08:33:20;;;;;;;12.68;7.45;;;10.40;37.90;;;;;;5044122;28;20020;-88
2021/03/11 08:35:50;;;;;;;10.52;6.28;;;11.20;37.80;;;;;;5043351;28;20463;-88
2021/03/11 08:38:22;;;;;;;12.65;5.45;;;11.90;36.40;;;;;;5044095;28;20079;-88
2021/03/11 08:41:02;;;;;;;14.57;6.70;;;12.60;34.30;;;;;;5043292;28;20029;-87
2021/03/11 08:43:43;;;;;;;12.10;6.88;;;13.10;32.90;;;;;;5046521;28;20037;-86
2021/03/11 08:46:17;;;;;;;20.42;8.10;;;13.40;32.10;;;;;;5046403;28;20056;-87
2021/03/11 08:48:58;;;;;;;19.02;8.07;;;13.70;31.80;;;;;;5046343;28;20040;-87
2021/03/11 08:51:23;;;;;;;15.50;7.03;;;14.10;31.20;;;;;;5043855;28;20474;-87
2021/03/11 08:53:53;;;;;;;16.27;7.05;;;14.40;31.10;;;;;;5042672;28;20013;-88
2021/03/11 08:56:19;;;;;;;9.15;6.20;;;14.90;30.30;;;;;;5045408;28;20524;-88
2021/03/11 08:59:07;;;;;;;14.27;7.30;;;15.60;30.10;;;;;;5045659;28;20021;-87
2021/03/11 09:01:41;;;;;;;13.95;6.88;;;16.50;29.10;;;;;;5045243;28;20459;-87
2021/03/11 09:04:07;;;;;;;16.50;9.43;;;17.40;28.90;;;;;;5045077;28;20024;-87
2021/03/11 09:06:52;;;;;;;14.82;7.30;;;17.90;28.40;;;;;;5046231;28;20017;-88
2021/03/11 09:09:38;;;;;;;10.27;6.10;;;18.20;27.20;;;;;;5054534;28;20045;-86
2021/03/11 09:12:13;;;;;;;10.27;6.03;;;18.90;26.80;;;;;;5058567;28;20025;-85
2021/03/11 09:14:41;;;;;;;9.75;5.82;;;19.50;26.30;;;;;;5052753;28;20761;-88
2021/03/11 09:17:13;;;;;;;23.92;6.95;;;19.80;26.00;;;;;;5042731;28;20486;-86
2021/03/11 09:19:50;;;;;;;12.75;6.10;;;20.10;25.40;;;;;;5043460;28;20028;-87
2021/03/11 09:22:31;;;;;;;21.00;6.28;;;20.20;24.90;;;;;;5041189;28;20340;-85
2021/03/11 09:25:08;;;;;;;8.27;5.10;;;20.20;24.50;;;;;;5042965;28;20025;-85
2021/03/11 09:27:36;;;;;;;11.15;5.72;;;20.30;24.20;;;;;;5042433;28;20032;-86
2021/03/11 09:30:09;;;;;;;23.70;7.93;;;20.40;24.30;;;;;;5043740;28;20075;-85
2021/03/11 09:32:37;;;;;;;13.00;7.22;;;20.80;24.10;;;;;;5044848;28;20044;-85
2021/03/11 09:35:05;;;;;;;11.18;6.18;;;21.40;24.00;;;;;;5045070;28;20027;-84
2021/03/11 09:37:59;;;;;;;11.57;6.38;;;21.90;23.60;;;;;;5042755;28;20061;-85
2021/03/11 09:40:43;;;;;;;19.48;8.45;;;22.40;23.10;;;;;;5043086;28;20084;-87
2021/03/11 09:43:33;;;;;;;27.08;6.97;;;22.80;23.40;;;;;;5045293;28;20390;-87
2021/03/11 09:46:09;;;;;;;11.43;5.68;;;23.10;22.80;;;;;;5045400;28;20029;-89
2021/03/11 09:48:39;;;;;;;21.73;7.20;;;23.50;22.70;;;;;;5053623;28;20120;-85
2021/03/11 09:51:13;;;;;;;32.58;6.60;;;23.80;22.40;;;;;;5054470;28;20024;-86
2021/03/11 09:53:46;;;;;;;28.45;6.45;;;24.10;22.00;;;;;;5053476;28;20025;-85
2021/03/11 09:56:16;;;;;;;17.52;5.70;;;24.50;21.90;;;;;;5053024;28;20296;-86
2021/03/11 10:01:48;;;;;;;11.45;5.25;;;25.20;21.40;;;;;;5029386;28;20044;-86
2021/03/11 10:04:18;;;;;;;28.48;5.80;;;25.50;21.50;;;;;;5034201;28;20032;-85
2021/03/11 10:06:54;;;;;;;24.08;6.50;;;25.80;21.10;;;;;;5044699;28;20036;-84
2021/03/11 10:09:21;;;;;;;13.45;5.53;;;25.90;20.90;;;;;;5037533;28;20076;-86
2021/03/11 10:11:49;;;;;;;20.27;5.88;;;26.10;20.90;;;;;;5033546;28;20024;-86
2021/03/11 10:14:25;;;;;;;5.90;4.55;;;26.10;20.70;;;;;;5033845;28;20017;-85
2021/03/11 10:16:56;;;;;;;28.83;6.80;;;26.20;20.50;;;;;;5031989;28;20041;-85
2021/03/11 10:19:31;;;;;;;17.00;5.03;;;26.30;20.50;;;;;;5033857;28;20052;-86
2021/03/11 10:22:19;;;;;;;9.00;5.25;;;26.40;20.30;;;;;;5032530;28;20478;-85
2021/03/11 10:24:49;;;;;;;20.75;5.63;;;26.60;20.30;;;;;;5033552;28;20032;-85
2021/03/11 10:27:22;;;;;;;10.75;5.45;;;26.80;20.40;;;;;;5033290;28;20116;-85
2021/03/11 10:30:06;;;;;;;14.73;5.25;;;27.00;20.20;;;;;;5033504;28;20032;-85
2021/03/11 10:32:34;;;;;;;9.38;4.95;;;27.20;20.30;;;;;;5033941;28;20041;-85
2021/03/11 10:35:00;;;;;;;8.05;5.90;;;27.30;20.20;;;;;;5033882;28;20032;-85
2021/03/11 10:37:52;;;;;;;16.25;5.50;;;27.40;20.00;;;;;;5033349;28;20029;-86
2021/03/11 10:40:26;;;;;;;17.35;5.85;;;27.40;19.90;;;;;;5031316;28;20426;-86
2021/03/11 10:42:54;;;;;;;;;;;27.60;19.80;;;;;;5034297;28;20025;-87
2021/03/11 10:50:47;;;;;;;15.85;5.50;;;28.10;19.80;;;;;;3987515;23;20850;-88
2021/03/11 10:53:14;;;;;;;14.80;5.60;;;28.20;19.80;;;;;;4969404;28;20034;-82
2021/03/11 10:55:43;;;;;;;10.52;4.93;;;28.30;19.90;;;;;;4980376;28;20506;-85
2021/03/11 10:58:22;;;;;;;9.45;5.20;;;28.50;19.80;;;;;;4991836;28;20049;-87
2021/03/11 11:00:48;;;;;;;13.45;5.25;;;28.60;19.60;;;;;;4993496;28;20026;-87
2021/03/11 11:03:14;;;;;;;11.25;5.40;;;28.80;19.70;;;;;;4991648;28;20069;-84
2021/03/11 11:05:39;;;;;;;17.05;5.60;;;28.90;19.60;;;;;;4995698;28;20031;-85
2021/03/11 11:08:09;;;;;;;6.97;4.78;;;29.00;19.60;;;;;;4977491;28;20030;-86
2021/03/11 11:10:35;;;;;;;9.57;4.82;;;29.20;19.40;;;;;;4995490;28;20034;-86
2021/03/11 11:13:01;;;;;;;8.07;4.65;;;29.30;19.40;;;;;;4997108;28;20022;-85
2021/03/11 11:15:28;;;;;;;5.82;4.45;;;29.30;19.40;;;;;;4996774;28;20038;-85
2021/03/11 11:17:54;;;;;;;6.85;5.20;;;29.20;19.30;;;;;;4997166;28;20038;-86
2021/03/11 11:20:21;;;;;;;7.78;5.03;;;29.30;19.30;;;;;;4997237;28;20448;-86
2021/03/11 11:22:47;;;;;;;4.40;3.25;;;29.50;19.30;;;;;;5001864;28;20080;-84
2021/03/11 11:25:13;;;;;;;7.00;3.90;;;29.50;18.90;;;;;;5013020;28;20364;-86
2021/03/11 11:27:39;;;;;;;6.13;4.00;;;29.50;18.90;;;;;;4997881;28;20074;-86
2021/03/11 11:30:08;;;;;;;9.88;4.63;;;29.60;18.90;;;;;;4997061;28;20109;-86
2021/03/11 11:32:33;;;;;;;8.15;5.95;;;29.60;18.90;;;;;;4979602;28;20479;-87
2021/03/11 11:34:59;;;;;;;16.08;5.55;;;29.70;19.00;;;;;;4997337;28;20030;-86
2021/03/11 11:37:25;;;;;;;12.07;5.32;;;29.80;19.10;;;;;;4979156;28;20041;-85
2021/03/11 11:39:51;;;;;;;7.50;5.22;;;29.70;19.00;;;;;;4997103;28;20377;-85
2021/03/11 11:42:17;;;;;;;15.85;5.38;;;29.60;19.00;;;;;;4997002;28;20041;-85
2021/03/11 11:44:45;;;;;;;15.10;4.88;;;29.80;19.00;;;;;;4997634;28;20038;-86
2021/03/11 11:47:11;;;;;;;7.30;4.50;;;29.80;18.90;;;;;;4997929;28;20030;-85
2021/03/11 11:49:38;;;;;;;17.13;5.10;;;29.90;18.80;;;;;;4997029;28;20034;-84
2021/03/11 11:52:05;;;;;;;7.15;4.95;;;29.90;18.80;;;;;;4989140;28;20077;-86
2021/03/11 11:54:31;;;;;;;14.10;9.32;;;30.00;18.80;;;;;;4996935;28;20084;-87
2021/03/11 11:56:56;;;;;;;6.07;4.28;;;29.90;18.80;;;;;;4997106;28;20332;-86
2021/03/11 11:59:22;;;;;;;5.53;4.78;;;29.90;18.70;;;;;;4996682;28;20081;-86
2021/03/11 12:01:48;;;;;;;6.05;4.65;;;29.80;18.70;;;;;;4996322;28;20527;-86
2021/03/11 12:04:14;;;;;;;7.22;4.38;;;29.40;18.40;;;;;;4995963;28;20033;-88
2021/03/11 12:06:40;;;;;;;12.07;6.03;;;28.70;18.40;;;;;;4996710;28;20067;-86
2021/03/11 12:09:07;;;;;;;6.55;4.03;;;28.50;18.60;;;;;;4996616;28;20030;-84
2021/03/11 12:11:33;;;;;;;15.07;4.78;;;28.50;18.60;;;;;;4997446;28;20384;-85
2021/03/11 12:14:00;;;;;;;8.50;4.53;;;28.60;18.60;;;;;;4998004;28;20096;-85
2021/03/11 12:16:26;;;;;;;7.53;4.00;;;28.60;18.60;;;;;;4998459;28;20113;-85
2021/03/11 12:18:52;;;;;;;3.92;3.42;;;28.70;18.50;;;;;;4998863;28;20169;-87
2021/03/11 12:21:18;;;;;;;12.23;4.85;;;28.80;18.30;;;;;;4994830;28;20088;-85
2021/03/11 12:23:44;;;;;;;8.07;4.72;;;28.60;18.40;;;;;;4996132;28;20412;-85
2021/03/11 12:26:10;;;;;;;9.70;5.10;;;28.50;18.40;;;;;;4996616;28;20053;-85
2021/03/11 12:28:35;;;;;;;19.55;5.97;;;28.60;18.60;;;;;;4995623;28;20037;-86
2021/03/11 12:31:03;;;;;;;6.10;4.90;;;28.70;18.80;;;;;;4995839;28;20031;-85
2021/03/11 12:33:29;;;;;;;21.98;5.78;;;28.70;18.70;;;;;;4995665;28;20025;-85
2021/03/11 12:35:54;;;;;;;13.05;5.10;;;28.70;18.70;;;;;;4995499;28;20031;-85
2021/03/11 12:38:20;;;;;;;8.98;4.57;;;28.80;18.80;;;;;;4995235;28;20030;-85
2021/03/11 12:40:46;;;;;;;5.50;4.63;;;28.80;18.70;;;;;;4994529;28;20030;-85
2021/03/11 12:43:12;;;;;;;13.82;4.85;;;28.70;18.70;;;;;;4994517;28;20022;-86
2021/03/11 12:45:38;;;;;;;10.90;4.18;;;28.60;18.70;;;;;;4994819;28;20026;-87
2021/03/11 12:48:05;;;;;;;9.43;5.25;;;28.60;18.60;;;;;;4995259;28;20078;-85
2021/03/11 12:50:31;;;;;;;10.88;5.07;;;28.70;18.70;;;;;;4996546;28;20121;-87
2021/03/11 12:52:57;;;;;;;10.93;5.47;;;28.80;18.80;;;;;;4997278;28;20034;-87
2021/03/11 12:55:23;;;;;;;7.10;4.97;;;28.90;18.80;;;;;;4996228;28;20085;-87
2021/03/11 12:57:48;;;;;;;17.17;5.70;;;28.70;18.70;;;;;;4996561;28;20027;-86